Keystone State — WCJI — position and weather

sailwx.info

Track history (hours):
 
Tides and Currents Weather Stations Pressure Air Temp Water Temp Dewpoint Dewpoint Depression Visibility Wind Speed Wind Dir Waves Ship Positions

Keystone State

Owner: MARITIME ADMINISTRATION, WASHINGTON, DC. More information available from US FCC via Universal Licensing System and Coast Guard Vessel Documentation Center.

Last reported at 2017-Sep-29 14:34 UTC. Time now 2017-Oct-17 22:34 UTC.
Position N 45°34' W 122°44'.
Warning: this ship's position is 18 days out of date.

Length 204 m; draft 8.4 m.

Type: Cargo ship. MMSI: 366565000.

Date/timePositionNaut miles runAvg speedWind from/ knotsBaromVisibWave heightAir tempDewpointWater temp
2017-Sep-29 14:34N 45°34' W 122°44'0 0.8
2017-Sep-29 14:31N 45°34' W 122°44'1 1.7
2017-Sep-29 14:00N 45°35' W 122°45'4 7.1
2017-Sep-29 13:30N 45°38' W 122°48'4 7.4
2017-Sep-29 13:01N 45°41' W 122°47'612.5
2017-Sep-29 12:31N 45°48' W 122°47'611.9
2017-Sep-29 12:00N 45°53' W 122°48'612.1
2017-Sep-29 11:31N 45°59' W 122°51'510.3
2017-Sep-29 11:01N 46°04' W 122°53'5 9.4
2017-Sep-29 10:31N 46°07' W 122°59'612.1
2017-Sep-29 10:01N 46°10' W 123°06'611.3
2017-Sep-29 09:31N 46°10' W 123°14'612.0
2017-Sep-29 09:00N 46°09' W 123°23'5 9.9
2017-Sep-29 08:31N 46°13' W 123°25'5 9.0
2017-Sep-29 08:00N 46°16' W 123°31'612.3
2017-Sep-29 07:30N 46°15' W 123°40'612.8
2017-Sep-29 07:00N 46°12' W 123°48'4 8.0
2017-Sep-29 06:30N 46°11' W 123°53'611.5
2017-Sep-29 06:00N 46°15' W 124°00'510.9
2017-Sep-29 05:31N 46°13' W 124°08'611.7
2017-Sep-29 05:00N 46°09' W 124°14'3 6.3
2017-Sep-29 04:31N 46°06' W 124°16'714.3
2017-Sep-29 04:01N 46°00' W 124°21'815.8
2017-Sep-29 03:31N 45°53' W 124°27'815.9
2017-Sep-29 03:00N 45°46' W 124°32'815.5
2017-Sep-29 02:30N 45°40' W 124°38'3 6.0
2017-Sep-29 02:00N 45°43' W 124°37'613.0
2017-Sep-29 01:30N 45°48' W 124°33'816.1
2017-Sep-29 01:00N 45°42' W 124°39'815.7
2017-Sep-29 00:30N 45°34' W 124°41'815.8
2017-Sep-29 00:00N 45°26' W 124°45'816.3
2017-Sep-28 23:30N 45°18' W 124°47'1016.1
2017-Sep-28 22:53N 45°08' W 124°49'1116.5
2017-Sep-28 22:14N 44°58' W 124°52'416.5
2017-Sep-28 22:00N 44°54' W 124°53'6416.4
2017-Sep-28 18:05N 43°51' W 125°05'116.6
2017-Sep-28 18:00N 43°49' W 125°05'25515.9
2017-Sep-28 01:55N 39°35' W 124°47'615.4
2017-Sep-28 01:30N 39°29' W 124°44'815.2
2017-Sep-28 00:59N 39°21' W 124°41'815.4
2017-Sep-28 00:28N 39°14' W 124°37'716.0
2017-Sep-28 00:00N 39°07' W 124°34'815.8
2017-Sep-27 23:30N 38°59' W 124°30'815.5
2017-Sep-27 23:00N 38°52' W 124°26'815.5
2017-Sep-27 22:30N 38°45' W 124°23'715.0
2017-Sep-27 22:00N 38°38' W 124°20'815.3
2017-Sep-27 21:30N 38°31' W 124°16'715.0
2017-Sep-27 21:00N 38°27' W 124°07'714.6
2017-Sep-27 20:30N 38°24' W 123°59'714.9
2017-Sep-27 20:00N 38°23' W 123°49'714.5
2017-Sep-27 19:30N 38°20' W 123°41'714.8
2017-Sep-27 19:00N 38°16' W 123°33'815.3
2017-Sep-27 18:30N 38°12' W 123°25'815.5
2017-Sep-27 18:00N 38°06' W 123°18'815.5
2017-Sep-27 17:30N 38°01' W 123°11'816.1
2017-Sep-27 17:00N 37°56' W 123°02'815.7
2017-Sep-27 16:30N 37°52' W 122°54'815.5
2017-Sep-27 16:00N 37°48' W 122°46'612.2
2017-Sep-27 15:30N 37°46' W 122°38'815.1
2017-Sep-27 15:00N 37°49' W 122°30'612.6
2017-Sep-27 14:31N 37°48' W 122°22'3 5.7
2017-Sep-27 14:00N 37°46' W 122°19'0 0.6
2017-Sep-27 13:30N 37°46' W 122°18'0 0.0
2017-Sep-27 13:00N 37°46' W 122°18'0 0.0
2017-Sep-27 12:30N 37°46' W 122°18'0 0.0
2017-Sep-27 12:00N 37°46' W 122°18'0 0.0
2017-Sep-27 11:31N 37°46' W 122°18'0 0.0
2017-Sep-27 11:00N 37°46' W 122°18'0 0.0
2017-Sep-27 10:30N 37°46' W 122°18'0 0.0
2017-Sep-27 10:00N 37°46' W 122°18'0 0.0
2017-Sep-27 09:30N 37°46' W 122°18'0 0.0
2017-Sep-27 09:00N 37°46' W 122°18'0 0.0
2017-Sep-27 08:31N 37°46' W 122°18'0 0.0
2017-Sep-27 08:00N 37°46' W 122°18'0 0.0
2017-Sep-27 07:30N 37°46' W 122°18'0 0.0
2017-Sep-27 07:00N 37°46' W 122°18'0 0.0
2017-Sep-27 06:30N 37°46' W 122°18'0 0.0
2017-Sep-27 06:00N 37°46' W 122°18'0 0.0
2017-Sep-27 05:30N 37°46' W 122°18'0 0.0
2017-Sep-27 05:00N 37°46' W 122°18'0 0.0
2017-Sep-27 04:30N 37°46' W 122°18'0 0.0
2017-Sep-27 04:00N 37°46' W 122°18'0 0.0
2017-Sep-27 03:30N 37°46' W 122°18'0 0.0
2017-Sep-27 03:01N 37°46' W 122°18'0 0.0
2017-Sep-27 02:31N 37°46' W 122°18'0 0.0
2017-Sep-27 02:00N 37°46' W 122°18'0 0.0
2017-Sep-27 01:31N 37°46' W 122°18'0 0.0
2017-Sep-27 01:00N 37°46' W 122°18'0 0.0
2017-Sep-27 00:31N 37°46' W 122°18'0 0.0
2017-Sep-27 00:00N 37°46' W 122°18'0 0.0
2017-Sep-26 23:30N 37°46' W 122°18'0 0.0
2017-Sep-26 23:00N 37°46' W 122°18'0 0.0
2017-Sep-26 22:30N 37°46' W 122°18'0 0.0
2017-Sep-26 22:00N 37°46' W 122°18'0 0.0
2017-Sep-26 21:30N 37°46' W 122°18'0 0.0
2017-Sep-26 21:00N 37°46' W 122°18'0 0.0
2017-Sep-26 20:30N 37°46' W 122°18'0 0.0
2017-Sep-26 20:00N 37°46' W 122°18'0 0.0
2017-Sep-26 19:30N 37°46' W 122°18'0 0.0
2017-Sep-26 19:00N 37°46' W 122°18'0 0.0
2017-Sep-26 18:30N 37°46' W 122°18'0 0.0
2017-Sep-26 18:00N 37°46' W 122°18'0 0.0
2017-Sep-26 17:30N 37°46' W 122°18'0 0.0
2017-Sep-26 17:00N 37°46' W 122°18'0 0.0
2017-Sep-26 16:30N 37°46' W 122°18'0 0.0
2017-Sep-26 16:00N 37°46' W 122°18'0 0.0
2017-Sep-26 15:30N 37°46' W 122°18'0 0.0
2017-Sep-26 15:00N 37°46' W 122°18'0 0.0
2017-Sep-26 14:30N 37°46' W 122°18'0 0.0
2017-Sep-26 14:00N 37°46' W 122°18'0 0.0
2017-Sep-26 13:30N 37°46' W 122°18'0 0.0
2017-Sep-26 13:01N 37°46' W 122°18'0 0.0
2017-Sep-26 12:30N 37°46' W 122°18'0 0.0
2017-Sep-26 12:00N 37°46' W 122°18'0 0.0
2017-Sep-26 11:30N 37°46' W 122°18'0 0.0
2017-Sep-26 11:00N 37°46' W 122°18'0 0.0
2017-Sep-26 10:30N 37°46' W 122°18'0 0.0
2017-Sep-26 10:00N 37°46' W 122°18'0 0.0
2017-Sep-26 09:30N 37°46' W 122°18'0 0.0
2017-Sep-26 09:00N 37°46' W 122°18'0 0.0
2017-Sep-26 08:30N 37°46' W 122°18'0 0.0
2017-Sep-26 08:00N 37°46' W 122°18'0 0.0
2017-Sep-26 07:30N 37°46' W 122°18'0 0.0
2017-Sep-26 07:00N 37°46' W 122°18'0 0.0
2017-Sep-26 06:30N 37°46' W 122°18'0 0.0
2017-Sep-26 06:00N 37°46' W 122°18'0 0.0
2017-Sep-26 05:30N 37°46' W 122°18'0 0.0
2017-Sep-26 05:00N 37°46' W 122°18'0 0.0
2017-Sep-26 04:30N 37°46' W 122°18'0 0.0
2017-Sep-26 04:00N 37°46' W 122°18'0 0.0
2017-Sep-26 03:30N 37°46' W 122°18'0 0.0
2017-Sep-26 03:00N 37°46' W 122°18'0 0.0
2017-Sep-26 02:30N 37°46' W 122°18'0 0.0
2017-Sep-26 02:00N 37°46' W 122°18'0 0.0
2017-Sep-26 01:30N 37°46' W 122°18'0 0.0
2017-Sep-26 01:00N 37°46' W 122°18'0 0.0
2017-Sep-26 00:30N 37°46' W 122°18'0 0.0
2017-Sep-26 00:00N 37°46' W 122°18'0 0.0
2017-Sep-25 23:30N 37°46' W 122°18'0 0.0
2017-Sep-25 23:00N 37°46' W 122°18'0 0.0
2017-Sep-25 22:30N 37°46' W 122°18'0 0.0
2017-Sep-25 22:00N 37°46' W 122°18'0 0.0
2017-Sep-25 21:30N 37°46' W 122°18'0 0.0
2017-Sep-25 21:00N 37°46' W 122°18'0 0.0
2017-Sep-25 20:30N 37°46' W 122°18'0 0.0
2017-Sep-25 20:00N 37°46' W 122°18'0 0.0
2017-Sep-25 19:30N 37°46' W 122°18'0 0.0
2017-Sep-25 19:00N 37°46' W 122°18'0 0.0
2017-Sep-25 18:30N 37°46' W 122°18'0 0.0
2017-Sep-25 18:00N 37°46' W 122°18'0 0.0
2017-Sep-25 17:30N 37°46' W 122°18'0 0.0
2017-Sep-25 17:01N 37°46' W 122°18'0 0.0
2017-Sep-25 16:30N 37°46' W 122°18'0 0.0
2017-Sep-25 16:00N 37°46' W 122°18'0 0.0
2017-Sep-25 15:30N 37°46' W 122°18'0 0.0
2017-Sep-25 15:00N 37°46' W 122°18'0 0.0
2017-Sep-25 14:30N 37°46' W 122°18'0 0.0
2017-Sep-25 14:00N 37°46' W 122°18'0 0.0
2017-Sep-25 13:30N 37°46' W 122°18'0 0.0
2017-Sep-25 13:01N 37°46' W 122°18'0 0.0
2017-Sep-25 12:31N 37°46' W 122°18'0 0.0
2017-Sep-25 12:01N 37°46' W 122°18'0 0.0
2017-Sep-25 11:30N 37°46' W 122°18'0 0.0
2017-Sep-25 11:00N 37°46' W 122°18'0 0.0
2017-Sep-25 10:30N 37°46' W 122°18'0 0.0
2017-Sep-25 10:00N 37°46' W 122°18'0 0.1
2017-Sep-25 09:31N 37°46' W 122°18'0 0.1
2017-Sep-25 09:00N 37°46' W 122°18'0 0.0
2017-Sep-25 08:30N 37°46' W 122°18'0 0.0
2017-Sep-25 08:00N 37°46' W 122°18'0 0.0
2017-Sep-25 07:30N 37°46' W 122°18'0 0.0
2017-Sep-25 07:00N 37°46' W 122°18'0 0.0
2017-Sep-25 06:30N 37°46' W 122°18'0 0.0
2017-Sep-25 06:00N 37°46' W 122°18'0 0.0
2017-Sep-25 05:30N 37°46' W 122°18'0 0.0
2017-Sep-25 05:00N 37°46' W 122°18'0 0.0
2017-Sep-25 04:30N 37°46' W 122°18'0 0.0
2017-Sep-25 04:00N 37°46' W 122°18'0 0.0
2017-Sep-25 03:30N 37°46' W 122°18'0 0.0
2017-Sep-25 03:00N 37°46' W 122°18'0 0.0
2017-Sep-25 02:30N 37°46' W 122°18'0 0.0
2017-Sep-25 02:00N 37°46' W 122°18'0 0.0
2017-Sep-25 01:30N 37°46' W 122°18'0 0.0
2017-Sep-25 01:00N 37°46' W 122°18'0 0.0
2017-Sep-25 00:30N 37°46' W 122°18'0 0.0
2017-Sep-25 00:00N 37°46' W 122°18'0 0.0
2017-Sep-24 23:31N 37°46' W 122°18'0 0.0
2017-Sep-24 23:00N 37°46' W 122°18'0 0.0
2017-Sep-24 22:30N 37°46' W 122°18'0 0.0
2017-Sep-24 22:00N 37°46' W 122°18'0 0.0
2017-Sep-24 21:30N 37°46' W 122°18'0 0.0
2017-Sep-24 21:00N 37°46' W 122°18'0 0.0
2017-Sep-24 20:30N 37°46' W 122°18'0 0.0
2017-Sep-24 20:00N 37°46' W 122°18'0 0.0
2017-Sep-24 19:30N 37°46' W 122°18'0 0.0
2017-Sep-24 19:00N 37°46' W 122°18'0 0.0
2017-Sep-24 18:30N 37°46' W 122°18'0 0.0
2017-Sep-24 18:00N 37°46' W 122°18'0 0.0
2017-Sep-24 17:30N 37°46' W 122°18'0 0.0
2017-Sep-24 17:00N 37°46' W 122°18'0 0.0
2017-Sep-24 16:30N 37°46' W 122°18'0 0.0
2017-Sep-24 16:01N 37°46' W 122°18'0 0.0
2017-Sep-24 15:30N 37°46' W 122°18'0 0.0
2017-Sep-24 15:00N 37°46' W 122°18'0 0.0
2017-Sep-24 14:30N 37°46' W 122°18'0 0.0
2017-Sep-24 14:01N 37°46' W 122°18'0 0.0
2017-Sep-24 13:30N 37°46' W 122°18'0 0.0
2017-Sep-24 13:00N 37°46' W 122°18'0 0.0
2017-Sep-24 12:31N 37°46' W 122°18'0 0.0
2017-Sep-24 12:00N 37°46' W 122°18'0 0.0
2017-Sep-24 11:30N 37°46' W 122°18'0 0.0
2017-Sep-24 11:00N 37°46' W 122°18'0 0.0
2017-Sep-24 10:30N 37°46' W 122°18'0 0.0
2017-Sep-24 10:00N 37°46' W 122°18'0 0.0
2017-Sep-24 09:30N 37°46' W 122°18'0 0.0
2017-Sep-24 09:01N 37°46' W 122°18'0 0.0
2017-Sep-24 08:30N 37°46' W 122°18'0 0.0
2017-Sep-24 08:00N 37°46' W 122°18'0 0.0
2017-Sep-24 07:31N 37°46' W 122°18'0 0.0
2017-Sep-24 07:00N 37°46' W 122°18'0 0.0
2017-Sep-24 06:30N 37°46' W 122°18'0 0.0
2017-Sep-24 06:00N 37°46' W 122°18'0 0.0
2017-Sep-24 05:30N 37°46' W 122°18'0 0.0
2017-Sep-24 05:00N 37°46' W 122°18'0 0.0
2017-Sep-24 04:31N 37°46' W 122°18'0 0.0
2017-Sep-24 04:00N 37°46' W 122°18'0 0.0
2017-Sep-24 03:30N 37°46' W 122°18'0 0.0
2017-Sep-24 03:00N 37°46' W 122°18'0 0.0
2017-Sep-24 02:30N 37°46' W 122°18'0 0.0
2017-Sep-24 02:00N 37°46' W 122°18'0 0.0
2017-Sep-24 01:30N 37°46' W 122°18'0 0.0
2017-Sep-24 01:00N 37°46' W 122°18'0 0.0
2017-Sep-24 00:30N 37°46' W 122°18'0 0.0
2017-Sep-24 00:00N 37°46' W 122°18'0 0.0
2017-Sep-23 23:30N 37°46' W 122°18'0 0.0
2017-Sep-23 23:00N 37°46' W 122°18'0 0.0
2017-Sep-23 22:30N 37°46' W 122°18'0 0.0
2017-Sep-23 22:00N 37°46' W 122°18'0 0.0
2017-Sep-23 21:30N 37°46' W 122°18'0 0.0
2017-Sep-23 21:00N 37°46' W 122°18'0 0.0
2017-Sep-23 20:30N 37°46' W 122°18'0 0.0
2017-Sep-23 20:00N 37°46' W 122°18'0 0.0
2017-Sep-22 02:00N 37°46' W 122°18'0 0.0
2017-Sep-22 01:30N 37°46' W 122°18'0 0.0
2017-Sep-22 01:00N 37°46' W 122°18'0 0.0
2017-Sep-22 00:30N 37°46' W 122°18'0 0.0
2017-Sep-22 00:00N 37°46' W 122°18'0 0.0
2017-Sep-21 23:30N 37°46' W 122°18'0 0.0
2017-Sep-21 23:00N 37°46' W 122°18'0 0.0
2017-Sep-21 22:30N 37°46' W 122°18'0 0.0
2017-Sep-21 22:00N 37°46' W 122°18'0 0.0
2017-Sep-21 21:30N 37°46' W 122°18'0 0.0
2017-Sep-21 21:00N 37°46' W 122°18'0 0.0
2017-Sep-21 20:30N 37°46' W 122°18'0 0.0
2017-Sep-21 20:00N 37°46' W 122°18'0 0.0
2017-Sep-21 19:30N 37°46' W 122°18'0 0.0
2017-Sep-21 19:00N 37°46' W 122°18'0 0.0
2017-Sep-21 18:30N 37°46' W 122°18'0 0.0
2017-Sep-21 18:00N 37°46' W 122°18'0 0.0
2017-Sep-21 17:30N 37°46' W 122°18'0 0.0
2017-Sep-21 17:00N 37°46' W 122°18'0 0.0
2017-Sep-21 16:30N 37°46' W 122°18'0 0.0
2017-Sep-21 16:00N 37°46' W 122°18'0 0.0
2017-Sep-21 15:30N 37°46' W 122°18'0 0.0
2017-Sep-21 15:00N 37°46' W 122°18'0 0.0
2017-Sep-21 14:30N 37°46' W 122°18'0 0.0
2017-Sep-21 14:00N 37°46' W 122°18'0 0.0
2017-Sep-21 13:30N 37°46' W 122°18'0 0.0
2017-Sep-21 13:00N 37°46' W 122°18'0 0.0
2017-Sep-21 12:31N 37°46' W 122°18'0 0.0
2017-Sep-21 12:00N 37°46' W 122°18'0 0.0
2017-Sep-21 11:30N 37°46' W 122°18'0 0.0
2017-Sep-21 11:00N 37°46' W 122°18'0 0.0
2017-Sep-21 10:30N 37°46' W 122°18'0 0.0
2017-Sep-21 10:00N 37°46' W 122°18'0 0.0
2017-Sep-21 09:30N 37°46' W 122°18'0 0.0
2017-Sep-21 09:00N 37°46' W 122°18'0 0.0
2017-Sep-21 08:31N 37°46' W 122°18'0 0.0
2017-Sep-21 08:00N 37°46' W 122°18'0 0.0
2017-Sep-21 07:31N 37°46' W 122°18'0 0.0
2017-Sep-21 07:01N 37°46' W 122°18'0 0.0
2017-Sep-21 06:31N 37°46' W 122°18'0 0.0
2017-Sep-21 06:00N 37°46' W 122°18'0 0.0
2017-Sep-21 05:30N 37°46' W 122°18'0 0.0
2017-Sep-21 05:00N 37°46' W 122°18'0 0.0
2017-Sep-21 04:31N 37°46' W 122°18'0 0.0
2017-Sep-21 04:00N 37°46' W 122°18'0 0.0
2017-Sep-21 03:30N 37°46' W 122°18'0 0.0
2017-Sep-21 03:00N 37°46' W 122°18'0 0.0
2017-Sep-21 02:30N 37°46' W 122°18'0 0.0
2017-Sep-21 02:00N 37°46' W 122°18'0 0.0
2017-Sep-21 01:30N 37°46' W 122°18'0 0.0
2017-Sep-21 01:00N 37°46' W 122°18'0 0.0
2017-Sep-21 00:30N 37°46' W 122°18'0 0.0
2017-Sep-21 00:00N 37°46' W 122°18'0 0.0
2017-Sep-20 23:30N 37°46' W 122°18'0 0.0
2017-Sep-20 23:00N 37°46' W 122°18'0 0.0
2017-Sep-20 22:30N 37°46' W 122°18'0 0.0
2017-Sep-20 22:00N 37°46' W 122°18'0 0.0
2017-Sep-20 21:30N 37°46' W 122°18'0 0.0
2017-Sep-20 21:00N 37°46' W 122°18'0 0.0
2017-Sep-20 20:31N 37°46' W 122°18'0 0.0
2017-Sep-20 20:01N 37°46' W 122°18'0 0.0
2017-Sep-20 19:30N 37°46' W 122°18'0 0.0
2017-Sep-20 19:00N 37°46' W 122°18'0 0.0
2017-Sep-20 18:30N 37°46' W 122°18'0 0.0
2017-Sep-20 18:01N 37°46' W 122°18'0 0.0
2017-Sep-20 17:30N 37°46' W 122°18'0 0.0
2017-Sep-20 17:00N 37°46' W 122°18'0 0.0
2017-Sep-20 16:30N 37°46' W 122°18'0 0.0
2017-Sep-20 16:01N 37°46' W 122°18'0 0.0
2017-Sep-20 15:30N 37°46' W 122°18'0 0.0
2017-Sep-20 15:00N 37°46' W 122°18'0 0.0
2017-Sep-20 14:00N 37°46' W 122°18'0 0.0
2017-Sep-20 13:31N 37°46' W 122°18'0 0.0
2017-Sep-20 13:00N 37°46' W 122°18'0 0.0
2017-Sep-20 12:30N 37°46' W 122°18'0 0.0
2017-Sep-20 12:01N 37°46' W 122°18'0 0.0
2017-Sep-20 11:30N 37°46' W 122°18'0 0.0
2017-Sep-20 11:00N 37°46' W 122°18'0 0.0
2017-Sep-20 10:30N 37°46' W 122°18'0 0.0
2017-Sep-20 10:01N 37°46' W 122°18'0 0.0
2017-Sep-20 09:30N 37°46' W 122°18'0 0.0
2017-Sep-20 09:00N 37°46' W 122°18'0 0.0
2017-Sep-20 08:30N 37°46' W 122°18'0 0.0
2017-Sep-20 08:00N 37°46' W 122°18'0 0.0
2017-Sep-20 07:30N 37°46' W 122°18'0 0.0
2017-Sep-20 07:00N 37°46' W 122°18'0 0.0
2017-Sep-20 06:31N 37°46' W 122°18'0 0.0
2017-Sep-20 06:00N 37°46' W 122°18'0 0.0
2017-Sep-20 05:30N 37°46' W 122°18'0 0.0
2017-Sep-20 05:00N 37°46' W 122°18'0 0.0
2017-Sep-20 04:30N 37°46' W 122°18'0 0.0
2017-Sep-20 04:01N 37°46' W 122°18'0 0.0
2017-Sep-20 03:31N 37°46' W 122°18'0 0.0
2017-Sep-20 03:01N 37°46' W 122°18'0 0.0
2017-Sep-20 02:31N 37°46' W 122°18'0 0.0
2017-Sep-20 02:00N 37°46' W 122°18'0 0.0
2017-Sep-20 01:31N 37°46' W 122°18'0 0.0
2017-Sep-20 01:00N 37°46' W 122°18'0 0.0
2017-Sep-20 00:31N 37°46' W 122°18'0 0.0
2017-Sep-20 00:01N 37°46' W 122°18'0 0.0
2017-Sep-19 23:31N 37°46' W 122°18'0 0.0
2017-Sep-19 23:01N 37°46' W 122°18'0 0.0
2017-Sep-19 22:30N 37°46' W 122°18'0 0.0
2017-Sep-19 22:00N 37°46' W 122°18'0 0.0
2017-Sep-19 21:31N 37°46' W 122°18'0 0.0
2017-Sep-19 21:00N 37°46' W 122°18'0 0.0
2017-Sep-19 20:30N 37°46' W 122°18'0 0.0
2017-Sep-19 20:00N 37°46' W 122°18'0 0.0
2017-Sep-19 19:31N 37°46' W 122°18'0 0.0
2017-Sep-19 19:01N 37°46' W 122°18'0 0.0
2017-Sep-19 18:30N 37°46' W 122°18'0 0.0
2017-Sep-19 18:00N 37°46' W 122°18'0 0.0
2017-Sep-19 17:30N 37°46' W 122°18'0 0.0
2017-Sep-19 17:00N 37°46' W 122°18'0 0.0
2017-Sep-19 16:31N 37°46' W 122°18'0 0.0
2017-Sep-19 16:00N 37°46' W 122°18'0 0.0
2017-Sep-19 15:30N 37°46' W 122°18'0 0.0
2017-Sep-19 15:00N 37°46' W 122°18'  
Track history (hours):
 
Tides and Currents Weather Stations Pressure Air Temp Water Temp Dewpoint Dewpoint Depression Visibility Wind Speed Wind Dir Waves Ship Positions

Keystone State

Owner: MARITIME ADMINISTRATION, WASHINGTON, DC. More information available from US FCC via Universal Licensing System and Coast Guard Vessel Documentation Center.

Last reported at 2017-Sep-29 14:34 UTC. Time now 2017-Oct-17 22:34 UTC.
Position N 45°34' W 122°44'.
Warning: this ship's position is 18 days out of date.

Length 204 m; draft 8.4 m.

Type: Cargo ship. MMSI: 366565000.

Date/timePositionNaut miles runAvg speedWind from/ knotsBaromVisibWave heightAir tempDewpointWater temp
2017-Sep-29 14:34N 45°34' W 122°44'0 0.8
2017-Sep-29 14:31N 45°34' W 122°44'1 1.7
2017-Sep-29 14:00N 45°35' W 122°45'4 7.1
2017-Sep-29 13:30N 45°38' W 122°48'4 7.4
2017-Sep-29 13:01N 45°41' W 122°47'612.5
2017-Sep-29 12:31N 45°48' W 122°47'611.9
2017-Sep-29 12:00N 45°53' W 122°48'612.1
2017-Sep-29 11:31N 45°59' W 122°51'510.3
2017-Sep-29 11:01N 46°04' W 122°53'5 9.4
2017-Sep-29 10:31N 46°07' W 122°59'612.1
2017-Sep-29 10:01N 46°10' W 123°06'611.3
2017-Sep-29 09:31N 46°10' W 123°14'612.0
2017-Sep-29 09:00N 46°09' W 123°23'5 9.9
2017-Sep-29 08:31N 46°13' W 123°25'5 9.0
2017-Sep-29 08:00N 46°16' W 123°31'612.3
2017-Sep-29 07:30N 46°15' W 123°40'612.8
2017-Sep-29 07:00N 46°12' W 123°48'4 8.0
2017-Sep-29 06:30N 46°11' W 123°53'611.5
2017-Sep-29 06:00N 46°15' W 124°00'510.9
2017-Sep-29 05:31N 46°13' W 124°08'611.7
2017-Sep-29 05:00N 46°09' W 124°14'3 6.3
2017-Sep-29 04:31N 46°06' W 124°16'714.3
2017-Sep-29 04:01N 46°00' W 124°21'815.8
2017-Sep-29 03:31N 45°53' W 124°27'815.9
2017-Sep-29 03:00N 45°46' W 124°32'815.5
2017-Sep-29 02:30N 45°40' W 124°38'3 6.0
2017-Sep-29 02:00N 45°43' W 124°37'613.0
2017-Sep-29 01:30N 45°48' W 124°33'816.1
2017-Sep-29 01:00N 45°42' W 124°39'815.7
2017-Sep-29 00:30N 45°34' W 124°41'815.8
2017-Sep-29 00:00N 45°26' W 124°45'816.3
2017-Sep-28 23:30N 45°18' W 124°47'1016.1
2017-Sep-28 22:53N 45°08' W 124°49'1116.5
2017-Sep-28 22:14N 44°58' W 124°52'416.5
2017-Sep-28 22:00N 44°54' W 124°53'6416.4
2017-Sep-28 18:05N 43°51' W 125°05'116.6
2017-Sep-28 18:00N 43°49' W 125°05'25515.9
2017-Sep-28 01:55N 39°35' W 124°47'615.4
2017-Sep-28 01:30N 39°29' W 124°44'815.2
2017-Sep-28 00:59N 39°21' W 124°41'815.4
2017-Sep-28 00:28N 39°14' W 124°37'716.0
2017-Sep-28 00:00N 39°07' W 124°34'815.8
2017-Sep-27 23:30N 38°59' W 124°30'815.5
2017-Sep-27 23:00N 38°52' W 124°26'815.5
2017-Sep-27 22:30N 38°45' W 124°23'715.0
2017-Sep-27 22:00N 38°38' W 124°20'815.3
2017-Sep-27 21:30N 38°31' W 124°16'715.0
2017-Sep-27 21:00N 38°27' W 124°07'714.6
2017-Sep-27 20:30N 38°24' W 123°59'714.9
2017-Sep-27 20:00N 38°23' W 123°49'714.5
2017-Sep-27 19:30N 38°20' W 123°41'714.8
2017-Sep-27 19:00N 38°16' W 123°33'815.3
2017-Sep-27 18:30N 38°12' W 123°25'815.5
2017-Sep-27 18:00N 38°06' W 123°18'815.5
2017-Sep-27 17:30N 38°01' W 123°11'816.1
2017-Sep-27 17:00N 37°56' W 123°02'815.7
2017-Sep-27 16:30N 37°52' W 122°54'815.5
2017-Sep-27 16:00N 37°48' W 122°46'612.2
2017-Sep-27 15:30N 37°46' W 122°38'815.1
2017-Sep-27 15:00N 37°49' W 122°30'612.6
2017-Sep-27 14:31N 37°48' W 122°22'3 5.7
2017-Sep-27 14:00N 37°46' W 122°19'0 0.6
2017-Sep-27 13:30N 37°46' W 122°18'0 0.0
2017-Sep-27 13:00N 37°46' W 122°18'0 0.0
2017-Sep-27 12:30N 37°46' W 122°18'0 0.0
2017-Sep-27 12:00N 37°46' W 122°18'0 0.0
2017-Sep-27 11:31N 37°46' W 122°18'0 0.0
2017-Sep-27 11:00N 37°46' W 122°18'0 0.0
2017-Sep-27 10:30N 37°46' W 122°18'0 0.0
2017-Sep-27 10:00N 37°46' W 122°18'0 0.0
2017-Sep-27 09:30N 37°46' W 122°18'0 0.0
2017-Sep-27 09:00N 37°46' W 122°18'0 0.0
2017-Sep-27 08:31N 37°46' W 122°18'0 0.0
2017-Sep-27 08:00N 37°46' W 122°18'0 0.0
2017-Sep-27 07:30N 37°46' W 122°18'0 0.0
2017-Sep-27 07:00N 37°46' W 122°18'0 0.0
2017-Sep-27 06:30N 37°46' W 122°18'0 0.0
2017-Sep-27 06:00N 37°46' W 122°18'0 0.0
2017-Sep-27 05:30N 37°46' W 122°18'0 0.0
2017-Sep-27 05:00N 37°46' W 122°18'0 0.0
2017-Sep-27 04:30N 37°46' W 122°18'0 0.0
2017-Sep-27 04:00N 37°46' W 122°18'0 0.0
2017-Sep-27 03:30N 37°46' W 122°18'0 0.0
2017-Sep-27 03:01N 37°46' W 122°18'0 0.0
2017-Sep-27 02:31N 37°46' W 122°18'0 0.0
2017-Sep-27 02:00N 37°46' W 122°18'0 0.0
2017-Sep-27 01:31N 37°46' W 122°18'0 0.0
2017-Sep-27 01:00N 37°46' W 122°18'0 0.0
2017-Sep-27 00:31N 37°46' W 122°18'0 0.0
2017-Sep-27 00:00N 37°46' W 122°18'0 0.0
2017-Sep-26 23:30N 37°46' W 122°18'0 0.0
2017-Sep-26 23:00N 37°46' W 122°18'0 0.0
2017-Sep-26 22:30N 37°46' W 122°18'0 0.0
2017-Sep-26 22:00N 37°46' W 122°18'0 0.0
2017-Sep-26 21:30N 37°46' W 122°18'0 0.0
2017-Sep-26 21:00N 37°46' W 122°18'0 0.0
2017-Sep-26 20:30N 37°46' W 122°18'0 0.0
2017-Sep-26 20:00N 37°46' W 122°18'0 0.0
2017-Sep-26 19:30N 37°46' W 122°18'0 0.0
2017-Sep-26 19:00N 37°46' W 122°18'0 0.0
2017-Sep-26 18:30N 37°46' W 122°18'0 0.0
2017-Sep-26 18:00N 37°46' W 122°18'0 0.0
2017-Sep-26 17:30N 37°46' W 122°18'0 0.0
2017-Sep-26 17:00N 37°46' W 122°18'0 0.0
2017-Sep-26 16:30N 37°46' W 122°18'0 0.0
2017-Sep-26 16:00N 37°46' W 122°18'0 0.0
2017-Sep-26 15:30N 37°46' W 122°18'0 0.0
2017-Sep-26 15:00N 37°46' W 122°18'0 0.0
2017-Sep-26 14:30N 37°46' W 122°18'0 0.0
2017-Sep-26 14:00N 37°46' W 122°18'0 0.0
2017-Sep-26 13:30N 37°46' W 122°18'0 0.0
2017-Sep-26 13:01N 37°46' W 122°18'0 0.0
2017-Sep-26 12:30N 37°46' W 122°18'0 0.0
2017-Sep-26 12:00N 37°46' W 122°18'0 0.0
2017-Sep-26 11:30N 37°46' W 122°18'0 0.0
2017-Sep-26 11:00N 37°46' W 122°18'0 0.0
2017-Sep-26 10:30N 37°46' W 122°18'0 0.0
2017-Sep-26 10:00N 37°46' W 122°18'0 0.0
2017-Sep-26 09:30N 37°46' W 122°18'0 0.0
2017-Sep-26 09:00N 37°46' W 122°18'0 0.0
2017-Sep-26 08:30N 37°46' W 122°18'0 0.0
2017-Sep-26 08:00N 37°46' W 122°18'0 0.0
2017-Sep-26 07:30N 37°46' W 122°18'0 0.0
2017-Sep-26 07:00N 37°46' W 122°18'0 0.0
2017-Sep-26 06:30N 37°46' W 122°18'0 0.0
2017-Sep-26 06:00N 37°46' W 122°18'0 0.0
2017-Sep-26 05:30N 37°46' W 122°18'0 0.0
2017-Sep-26 05:00N 37°46' W 122°18'0 0.0
2017-Sep-26 04:30N 37°46' W 122°18'0 0.0
2017-Sep-26 04:00N 37°46' W 122°18'0 0.0
2017-Sep-26 03:30N 37°46' W 122°18'0 0.0
2017-Sep-26 03:00N 37°46' W 122°18'0 0.0
2017-Sep-26 02:30N 37°46' W 122°18'0 0.0
2017-Sep-26 02:00N 37°46' W 122°18'0 0.0
2017-Sep-26 01:30N 37°46' W 122°18'0 0.0
2017-Sep-26 01:00N 37°46' W 122°18'0 0.0
2017-Sep-26 00:30N 37°46' W 122°18'0 0.0
2017-Sep-26 00:00N 37°46' W 122°18'0 0.0
2017-Sep-25 23:30N 37°46' W 122°18'0 0.0
2017-Sep-25 23:00N 37°46' W 122°18'0 0.0
2017-Sep-25 22:30N 37°46' W 122°18'0 0.0
2017-Sep-25 22:00N 37°46' W 122°18'0 0.0
2017-Sep-25 21:30N 37°46' W 122°18'0 0.0
2017-Sep-25 21:00N 37°46' W 122°18'0 0.0
2017-Sep-25 20:30N 37°46' W 122°18'0 0.0
2017-Sep-25 20:00N 37°46' W 122°18'0 0.0
2017-Sep-25 19:30N 37°46' W 122°18'0 0.0
2017-Sep-25 19:00N 37°46' W 122°18'0 0.0
2017-Sep-25 18:30N 37°46' W 122°18'0 0.0
2017-Sep-25 18:00N 37°46' W 122°18'0 0.0
2017-Sep-25 17:30N 37°46' W 122°18'0 0.0
2017-Sep-25 17:01N 37°46' W 122°18'0 0.0
2017-Sep-25 16:30N 37°46' W 122°18'0 0.0
2017-Sep-25 16:00N 37°46' W 122°18'0 0.0
2017-Sep-25 15:30N 37°46' W 122°18'0 0.0
2017-Sep-25 15:00N 37°46' W 122°18'0 0.0
2017-Sep-25 14:30N 37°46' W 122°18'0 0.0
2017-Sep-25 14:00N 37°46' W 122°18'0 0.0
2017-Sep-25 13:30N 37°46' W 122°18'0 0.0
2017-Sep-25 13:01N 37°46' W 122°18'0 0.0
2017-Sep-25 12:31N 37°46' W 122°18'0 0.0
2017-Sep-25 12:01N 37°46' W 122°18'0 0.0
2017-Sep-25 11:30N 37°46' W 122°18'0 0.0
2017-Sep-25 11:00N 37°46' W 122°18'0 0.0
2017-Sep-25 10:30N 37°46' W 122°18'0 0.0
2017-Sep-25 10:00N 37°46' W 122°18'0 0.1
2017-Sep-25 09:31N 37°46' W 122°18'0 0.1
2017-Sep-25 09:00N 37°46' W 122°18'0 0.0
2017-Sep-25 08:30N 37°46' W 122°18'0 0.0
2017-Sep-25 08:00N 37°46' W 122°18'0 0.0
2017-Sep-25 07:30N 37°46' W 122°18'0 0.0
2017-Sep-25 07:00N 37°46' W 122°18'0 0.0
2017-Sep-25 06:30N 37°46' W 122°18'0 0.0
2017-Sep-25 06:00N 37°46' W 122°18'0 0.0
2017-Sep-25 05:30N 37°46' W 122°18'0 0.0
2017-Sep-25 05:00N 37°46' W 122°18'0 0.0
2017-Sep-25 04:30N 37°46' W 122°18'0 0.0
2017-Sep-25 04:00N 37°46' W 122°18'0 0.0
2017-Sep-25 03:30N 37°46' W 122°18'0 0.0
2017-Sep-25 03:00N 37°46' W 122°18'0 0.0
2017-Sep-25 02:30N 37°46' W 122°18'0 0.0
2017-Sep-25 02:00N 37°46' W 122°18'0 0.0
2017-Sep-25 01:30N 37°46' W 122°18'0 0.0
2017-Sep-25 01:00N 37°46' W 122°18'0 0.0
2017-Sep-25 00:30N 37°46' W 122°18'0 0.0
2017-Sep-25 00:00N 37°46' W 122°18'0 0.0
2017-Sep-24 23:31N 37°46' W 122°18'0 0.0
2017-Sep-24 23:00N 37°46' W 122°18'0 0.0
2017-Sep-24 22:30N 37°46' W 122°18'0 0.0
2017-Sep-24 22:00N 37°46' W 122°18'0 0.0
2017-Sep-24 21:30N 37°46' W 122°18'0 0.0
2017-Sep-24 21:00N 37°46' W 122°18'0 0.0
2017-Sep-24 20:30N 37°46' W 122°18'0 0.0
2017-Sep-24 20:00N 37°46' W 122°18'0 0.0
2017-Sep-24 19:30N 37°46' W 122°18'0 0.0
2017-Sep-24 19:00N 37°46' W 122°18'0 0.0
2017-Sep-24 18:30N 37°46' W 122°18'0 0.0
2017-Sep-24 18:00N 37°46' W 122°18'0 0.0
2017-Sep-24 17:30N 37°46' W 122°18'0 0.0
2017-Sep-24 17:00N 37°46' W 122°18'0 0.0
2017-Sep-24 16:30N 37°46' W 122°18'0 0.0
2017-Sep-24 16:01N 37°46' W 122°18'0 0.0
2017-Sep-24 15:30N 37°46' W 122°18'0 0.0
2017-Sep-24 15:00N 37°46' W 122°18'0 0.0
2017-Sep-24 14:30N 37°46' W 122°18'0 0.0
2017-Sep-24 14:01N 37°46' W 122°18'0 0.0
2017-Sep-24 13:30N 37°46' W 122°18'0 0.0
2017-Sep-24 13:00N 37°46' W 122°18'0 0.0
2017-Sep-24 12:31N 37°46' W 122°18'0 0.0
2017-Sep-24 12:00N 37°46' W 122°18'0 0.0
2017-Sep-24 11:30N 37°46' W 122°18'0 0.0
2017-Sep-24 11:00N 37°46' W 122°18'0 0.0
2017-Sep-24 10:30N 37°46' W 122°18'0 0.0
2017-Sep-24 10:00N 37°46' W 122°18'0 0.0
2017-Sep-24 09:30N 37°46' W 122°18'0 0.0
2017-Sep-24 09:01N 37°46' W 122°18'0 0.0
2017-Sep-24 08:30N 37°46' W 122°18'0 0.0
2017-Sep-24 08:00N 37°46' W 122°18'0 0.0
2017-Sep-24 07:31N 37°46' W 122°18'0 0.0
2017-Sep-24 07:00N 37°46' W 122°18'0 0.0
2017-Sep-24 06:30N 37°46' W 122°18'0 0.0
2017-Sep-24 06:00N 37°46' W 122°18'0 0.0
2017-Sep-24 05:30N 37°46' W 122°18'0 0.0
2017-Sep-24 05:00N 37°46' W 122°18'0 0.0
2017-Sep-24 04:31N 37°46' W 122°18'0 0.0
2017-Sep-24 04:00N 37°46' W 122°18'0 0.0
2017-Sep-24 03:30N 37°46' W 122°18'0 0.0
2017-Sep-24 03:00N 37°46' W 122°18'0 0.0
2017-Sep-24 02:30N 37°46' W 122°18'0 0.0
2017-Sep-24 02:00N 37°46' W 122°18'0 0.0
2017-Sep-24 01:30N 37°46' W 122°18'0 0.0
2017-Sep-24 01:00N 37°46' W 122°18'0 0.0
2017-Sep-24 00:30N 37°46' W 122°18'0 0.0
2017-Sep-24 00:00N 37°46' W 122°18'0 0.0
2017-Sep-23 23:30N 37°46' W 122°18'0 0.0
2017-Sep-23 23:00N 37°46' W 122°18'0 0.0
2017-Sep-23 22:30N 37°46' W 122°18'0 0.0
2017-Sep-23 22:00N 37°46' W 122°18'0 0.0
2017-Sep-23 21:30N 37°46' W 122°18'0 0.0
2017-Sep-23 21:00N 37°46' W 122°18'0 0.0
2017-Sep-23 20:30N 37°46' W 122°18'0 0.0
2017-Sep-23 20:00N 37°46' W 122°18'0 0.0
2017-Sep-22 02:00N 37°46' W 122°18'0 0.0
2017-Sep-22 01:30N 37°46' W 122°18'0 0.0
2017-Sep-22 01:00N 37°46' W 122°18'0 0.0
2017-Sep-22 00:30N 37°46' W 122°18'0 0.0
2017-Sep-22 00:00N 37°46' W 122°18'0 0.0
2017-Sep-21 23:30N 37°46' W 122°18'0 0.0
2017-Sep-21 23:00N 37°46' W 122°18'0 0.0
2017-Sep-21 22:30N 37°46' W 122°18'0 0.0
2017-Sep-21 22:00N 37°46' W 122°18'0 0.0
2017-Sep-21 21:30N 37°46' W 122°18'0 0.0
2017-Sep-21 21:00N 37°46' W 122°18'0 0.0
2017-Sep-21 20:30N 37°46' W 122°18'0 0.0
2017-Sep-21 20:00N 37°46' W 122°18'0 0.0
2017-Sep-21 19:30N 37°46' W 122°18'0 0.0
2017-Sep-21 19:00N 37°46' W 122°18'0 0.0
2017-Sep-21 18:30N 37°46' W 122°18'0 0.0
2017-Sep-21 18:00N 37°46' W 122°18'0 0.0
2017-Sep-21 17:30N 37°46' W 122°18'0 0.0
2017-Sep-21 17:00N 37°46' W 122°18'0 0.0
2017-Sep-21 16:30N 37°46' W 122°18'0 0.0
2017-Sep-21 16:00N 37°46' W 122°18'0 0.0
2017-Sep-21 15:30N 37°46' W 122°18'0 0.0
2017-Sep-21 15:00N 37°46' W 122°18'0 0.0
2017-Sep-21 14:30N 37°46' W 122°18'0 0.0
2017-Sep-21 14:00N 37°46' W 122°18'0 0.0
2017-Sep-21 13:30N 37°46' W 122°18'0 0.0
2017-Sep-21 13:00N 37°46' W 122°18'0 0.0
2017-Sep-21 12:31N 37°46' W 122°18'0 0.0
2017-Sep-21 12:00N 37°46' W 122°18'0 0.0
2017-Sep-21 11:30N 37°46' W 122°18'0 0.0
2017-Sep-21 11:00N 37°46' W 122°18'0 0.0
2017-Sep-21 10:30N 37°46' W 122°18'0 0.0
2017-Sep-21 10:00N 37°46' W 122°18'0 0.0
2017-Sep-21 09:30N 37°46' W 122°18'0 0.0
2017-Sep-21 09:00N 37°46' W 122°18'0 0.0
2017-Sep-21 08:31N 37°46' W 122°18'0 0.0
2017-Sep-21 08:00N 37°46' W 122°18'0 0.0
2017-Sep-21 07:31N 37°46' W 122°18'0 0.0
2017-Sep-21 07:01N 37°46' W 122°18'0 0.0
2017-Sep-21 06:31N 37°46' W 122°18'0 0.0
2017-Sep-21 06:00N 37°46' W 122°18'0 0.0
2017-Sep-21 05:30N 37°46' W 122°18'0 0.0
2017-Sep-21 05:00N 37°46' W 122°18'0 0.0
2017-Sep-21 04:31N 37°46' W 122°18'0 0.0
2017-Sep-21 04:00N 37°46' W 122°18'0 0.0
2017-Sep-21 03:30N 37°46' W 122°18'0 0.0
2017-Sep-21 03:00N 37°46' W 122°18'0 0.0
2017-Sep-21 02:30N 37°46' W 122°18'0 0.0
2017-Sep-21 02:00N 37°46' W 122°18'0 0.0
2017-Sep-21 01:30N 37°46' W 122°18'0 0.0
2017-Sep-21 01:00N 37°46' W 122°18'0 0.0
2017-Sep-21 00:30N 37°46' W 122°18'0 0.0
2017-Sep-21 00:00N 37°46' W 122°18'0 0.0
2017-Sep-20 23:30N 37°46' W 122°18'0 0.0
2017-Sep-20 23:00N 37°46' W 122°18'0 0.0
2017-Sep-20 22:30N 37°46' W 122°18'0 0.0
2017-Sep-20 22:00N 37°46' W 122°18'0 0.0
2017-Sep-20 21:30N 37°46' W 122°18'0 0.0
2017-Sep-20 21:00N 37°46' W 122°18'0 0.0
2017-Sep-20 20:31N 37°46' W 122°18'0 0.0
2017-Sep-20 20:01N 37°46' W 122°18'0 0.0
2017-Sep-20 19:30N 37°46' W 122°18'0 0.0
2017-Sep-20 19:00N 37°46' W 122°18'0 0.0
2017-Sep-20 18:30N 37°46' W 122°18'0 0.0
2017-Sep-20 18:01N 37°46' W 122°18'0 0.0
2017-Sep-20 17:30N 37°46' W 122°18'0 0.0
2017-Sep-20 17:00N 37°46' W 122°18'0 0.0
2017-Sep-20 16:30N 37°46' W 122°18'0 0.0
2017-Sep-20 16:01N 37°46' W 122°18'0 0.0
2017-Sep-20 15:30N 37°46' W 122°18'0 0.0
2017-Sep-20 15:00N 37°46' W 122°18'0 0.0
2017-Sep-20 14:00N 37°46' W 122°18'0 0.0
2017-Sep-20 13:31N 37°46' W 122°18'0 0.0
2017-Sep-20 13:00N 37°46' W 122°18'0 0.0
2017-Sep-20 12:30N 37°46' W 122°18'0 0.0
2017-Sep-20 12:01N 37°46' W 122°18'0 0.0
2017-Sep-20 11:30N 37°46' W 122°18'0 0.0
2017-Sep-20 11:00N 37°46' W 122°18'0 0.0
2017-Sep-20 10:30N 37°46' W 122°18'0 0.0
2017-Sep-20 10:01N 37°46' W 122°18'0 0.0
2017-Sep-20 09:30N 37°46' W 122°18'0 0.0
2017-Sep-20 09:00N 37°46' W 122°18'0 0.0
2017-Sep-20 08:30N 37°46' W 122°18'0 0.0
2017-Sep-20 08:00N 37°46' W 122°18'0 0.0
2017-Sep-20 07:30N 37°46' W 122°18'0 0.0
2017-Sep-20 07:00N 37°46' W 122°18'0 0.0
2017-Sep-20 06:31N 37°46' W 122°18'0 0.0
2017-Sep-20 06:00N 37°46' W 122°18'0 0.0
2017-Sep-20 05:30N 37°46' W 122°18'0 0.0
2017-Sep-20 05:00N 37°46' W 122°18'0 0.0
2017-Sep-20 04:30N 37°46' W 122°18'0 0.0
2017-Sep-20 04:01N 37°46' W 122°18'0 0.0
2017-Sep-20 03:31N 37°46' W 122°18'0 0.0
2017-Sep-20 03:01N 37°46' W 122°18'0 0.0
2017-Sep-20 02:31N 37°46' W 122°18'0 0.0
2017-Sep-20 02:00N 37°46' W 122°18'0 0.0
2017-Sep-20 01:31N 37°46' W 122°18'0 0.0
2017-Sep-20 01:00N 37°46' W 122°18'0 0.0
2017-Sep-20 00:31N 37°46' W 122°18'0 0.0
2017-Sep-20 00:01N 37°46' W 122°18'0 0.0
2017-Sep-19 23:31N 37°46' W 122°18'0 0.0
2017-Sep-19 23:01N 37°46' W 122°18'0 0.0
2017-Sep-19 22:30N 37°46' W 122°18'0 0.0
2017-Sep-19 22:00N 37°46' W 122°18'0 0.0
2017-Sep-19 21:31N 37°46' W 122°18'0 0.0
2017-Sep-19 21:00N 37°46' W 122°18'0 0.0
2017-Sep-19 20:30N 37°46' W 122°18'0 0.0
2017-Sep-19 20:00N 37°46' W 122°18'0 0.0
2017-Sep-19 19:31N 37°46' W 122°18'0 0.0
2017-Sep-19 19:01N 37°46' W 122°18'0 0.0
2017-Sep-19 18:30N 37°46' W 122°18'0 0.0
2017-Sep-19 18:00N 37°46' W 122°18'0 0.0
2017-Sep-19 17:30N 37°46' W 122°18'0 0.0
2017-Sep-19 17:00N 37°46' W 122°18'0 0.0
2017-Sep-19 16:31N 37°46' W 122°18'0 0.0
2017-Sep-19 16:00N 37°46' W 122°18'0 0.0
2017-Sep-19 15:30N 37°46' W 122°18'0 0.0
2017-Sep-19 15:00N 37°46' W 122°18'  

Dump ship's entire track history